メインページ
METAR-TAF:

METAR-TAF

空港 :

Dease Lake, ブリティッシュコロンビア州, カナダ

緯度: 58-25-20N, 経度: 130-01-53W, 海抜: 803m

現時点の気象観測

当レポートは21分前の05:02(UTC)に作成
無風
気温 -15°C
湿度 85%
気圧 1026 hPa
視程: 9.7km
晴天

METAR: CYDL 170502Z AUTO 00000KT 6SM BR CLR M15/M17 A3031 RMK SLP320

時間: 21:23 (05:23 UTC)

予報

当レポートは5時間45分前の23:38(UTC)に作成
予報は17日の 00時(UTC)から 17日の 03時(UTC)まで有効
北東の風 5kt
視程: 10km
高度2500ftの雲はほとんどない
高度4000ftの曇り
17日の 00時(UTC)から 17日の 03時(UTC)まで一時的に
視程: 4.8km
高度2500ftの曇り
小雪

TAF: CYDL 162338Z 1700/1703 05005KT P6SM FEW025 OVC040 TEMPO 1700/1703 3SM -SN OVC025 RMK FCST BASED ON AUTO OBS. NXT FCST WILL BE ISSUED AT 171645Z

4,000以上の空港の気象観測と天気予報(METAR報とTAF報)

利用可能な観測所は地図上に黄色い丸と赤い丸で示す。

丸の上にカーソルを重ねると観測所名を参照できる。

次にクリックすると気象観測と天気予報を参照できる。

マップの切り替え:黒色「×」印の緑ボタンをクリックして拡大、「-」印の緑ボタンをクリックして縮小、緑色の三角印をクリックして隣りの地図に切り替え


METAR-TAF: